Time;durP1;ratioP1;P1;durP2;ratioP2;P2;SDS_P1;SDS_P2;PMS_P1;PMS_P2;Temp;Humidity;BMP_temperature;BMP_pressure;BME280_temperature;BME280_humidity;BME280_pressure;Samples;Min_cycle;Max_cycle;Signal;HPM_P1;HPM_P2
2022/04/05 00:01:00;;;;;;;30.77;19.65;;;3.10;78.60;;;;;;5096272;28;20016;-12
2022/04/05 00:03:27;;;;;;;28.92;19.67;;;3.00;78.80;;;;;;5095988;28;20024;-12
2022/04/05 00:05:53;;;;;;;26.98;17.27;;;3.10;79.00;;;;;;5096187;28;20014;-12
2022/04/05 00:08:18;;;;;;;24.13;17.55;;;3.10;78.80;;;;;;5095916;28;20476;-12
2022/04/05 00:10:44;;;;;;;29.92;20.50;;;3.10;78.90;;;;;;5095808;28;20495;-12
2022/04/05 00:13:10;;;;;;;34.40;23.25;;;3.10;79.10;;;;;;5096298;28;20032;-13
2022/04/05 00:15:37;;;;;;;30.98;20.00;;;3.00;78.90;;;;;;5095688;28;20023;-12
2022/04/05 00:18:04;;;;;;;28.83;18.95;;;3.00;78.90;;;;;;5095949;28;20036;-12
2022/04/05 00:20:30;;;;;;;29.88;19.55;;;3.00;79.10;;;;;;5095363;28;20034;-13
2022/04/05 00:22:58;;;;;;;48.72;30.85;;;2.90;79.10;;;;;;5094247;28;20020;-12
2022/04/05 00:25:24;;;;;;;32.53;22.05;;;3.00;79.40;;;;;;5095500;28;20107;-12
2022/04/05 00:27:51;;;;;;;31.63;22.48;;;3.00;79.40;;;;;;5095664;28;20044;-12
2022/04/05 00:30:17;;;;;;;33.13;21.25;;;2.90;80.00;;;;;;5095455;28;20096;-11
2022/04/05 00:32:43;;;;;;;35.00;22.92;;;2.90;79.30;;;;;;5095498;28;20539;-12
2022/04/05 00:35:10;;;;;;;32.88;19.55;;;2.90;80.20;;;;;;5095375;28;20116;-12
2022/04/05 00:37:37;;;;;;;33.13;21.08;;;2.90;79.40;;;;;;5095271;28;20036;-11
2022/04/05 00:40:05;;;;;;;31.67;20.35;;;2.90;79.40;;;;;;5095529;28;20028;-12
2022/04/05 00:42:32;;;;;;;27.10;18.13;;;2.90;79.50;;;;;;5095355;28;20029;-12
2022/04/05 00:44:58;;;;;;;43.42;27.48;;;2.90;79.60;;;;;;5095377;28;20376;-12
2022/04/05 00:47:25;;;;;;;27.80;18.08;;;2.90;79.70;;;;;;5095363;28;20020;-12
2022/04/05 00:49:53;;;;;;;33.47;21.30;;;2.80;79.40;;;;;;5095701;28;20020;-12
2022/04/05 00:52:21;;;;;;;31.95;20.55;;;2.70;79.30;;;;;;5094043;28;20052;-12
2022/04/05 00:54:49;;;;;;;41.38;26.42;;;2.80;79.50;;;;;;5095253;28;20070;-12
2022/04/05 00:57:18;;;;;;;45.55;28.13;;;2.70;79.60;;;;;;5094846;28;20032;-12
2022/04/05 00:59:47;;;;;;;41.38;24.75;;;2.70;79.90;;;;;;5095121;28;20012;-13
2022/04/05 01:02:17;;;;;;;41.78;26.73;;;2.60;79.70;;;;;;5094895;28;20509;-12
2022/04/05 01:04:44;;;;;;;29.95;19.02;;;2.60;80.10;;;;;;5095074;28;20100;-12
2022/04/05 01:07:17;;;;;;;34.08;21.95;;;2.60;80.00;;;;;;5094737;28;20533;-12
2022/04/05 01:09:44;;;;;;;27.15;17.40;;;2.60;80.10;;;;;;5095110;28;20020;-13
2022/04/05 01:12:12;;;;;;;30.23;19.90;;;2.60;79.80;;;;;;5093467;28;20030;-13
2022/04/05 01:14:40;;;;;;;36.28;22.85;;;2.60;79.90;;;;;;5094296;28;20075;-13
2022/04/05 01:17:07;;;;;;;46.70;29.13;;;2.60;80.00;;;;;;5094771;28;20032;-12
2022/04/05 01:19:34;;;;;;;32.33;20.83;;;2.50;79.90;;;;;;5094457;28;20056;-13
2022/04/05 01:22:01;;;;;;;26.70;17.17;;;2.50;80.40;;;;;;5094411;28;20024;-12
2022/04/05 01:24:28;;;;;;;33.25;21.17;;;2.40;80.10;;;;;;5094550;28;20024;-13
2022/04/05 01:26:57;;;;;;;35.35;22.35;;;2.50;80.50;;;;;;5094599;28;20033;-12
2022/04/05 01:29:26;;;;;;;29.35;19.38;;;2.40;80.60;;;;;;5094532;28;20032;-14
2022/04/05 01:32:11;;;;;;;26.05;17.13;;;2.40;80.50;;;;;;5094424;28;20035;-13
2022/04/05 01:34:38;;;;;;;30.23;19.38;;;2.40;80.40;;;;;;5092915;28;20032;-13
2022/04/05 01:37:10;;;;;;;24.42;15.85;;;2.40;80.70;;;;;;5093622;28;20044;-13
2022/04/05 01:39:38;;;;;;;35.53;22.50;;;2.30;80.40;;;;;;5094151;28;20028;-14
2022/04/05 01:42:07;;;;;;;27.40;19.15;;;2.20;80.30;;;;;;5094011;28;20557;-12
2022/04/05 01:44:34;;;;;;;31.40;19.90;;;2.20;80.30;;;;;;5093689;28;20392;-12
2022/04/05 01:47:10;;;;;;;40.25;25.25;;;2.20;80.70;;;;;;5093954;28;20056;-14
2022/04/05 01:49:37;;;;;;;27.33;17.83;;;2.10;80.70;;;;;;5093932;28;20024;-13
2022/04/05 01:52:04;;;;;;;37.85;22.02;;;2.10;80.70;;;;;;5093956;28;20510;-12
2022/04/05 01:54:31;;;;;;;28.40;18.08;;;2.10;80.50;;;;;;5093877;28;20494;-12
2022/04/05 01:56:57;;;;;;;24.08;15.80;;;2.10;80.60;;;;;;5093787;28;20483;-13
2022/04/05 01:59:26;;;;;;;22.15;14.68;;;2.10;80.70;;;;;;5094010;28;20072;-13
2022/04/05 02:01:52;;;;;;;35.17;24.20;;;2.10;80.60;;;;;;5094021;28;20024;-12
2022/04/05 02:04:19;;;;;;;26.63;17.23;;;2.00;80.80;;;;;;5093583;28;20537;-12
2022/04/05 02:06:46;;;;;;;24.58;16.05;;;2.00;80.80;;;;;;5093626;28;20069;-12
2022/04/05 02:09:14;;;;;;;27.30;18.33;;;2.00;80.50;;;;;;5094535;28;20464;-12
2022/04/05 02:11:43;;;;;;;31.80;20.67;;;2.00;80.60;;;;;;5093606;28;20040;-13
2022/04/05 02:14:10;;;;;;;27.50;17.25;;;1.90;81.00;;;;;;5093504;28;20024;-13
2022/04/05 02:16:36;;;;;;;35.47;23.33;;;1.90;81.00;;;;;;5093463;28;20032;-13
2022/04/05 02:19:03;;;;;;;25.15;16.38;;;1.90;81.20;;;;;;5093790;28;20031;-13
2022/04/05 02:21:29;;;;;;;20.17;13.27;;;1.90;81.10;;;;;;5093779;28;20024;-12
2022/04/05 02:23:55;;;;;;;29.70;20.63;;;1.80;80.70;;;;;;5094056;28;20035;-12
2022/04/05 02:26:21;;;;;;;29.48;20.33;;;1.80;81.00;;;;;;5093520;28;20028;-12
2022/04/05 02:28:48;;;;;;;38.03;24.50;;;1.80;81.20;;;;;;5094631;28;20193;-13
2022/04/05 02:31:15;;;;;;;33.92;22.02;;;1.80;81.30;;;;;;5093790;28;20028;-13
2022/04/05 02:33:41;;;;;;;28.88;18.15;;;1.80;81.10;;;;;;5093218;28;20016;-12
2022/04/05 02:36:08;;;;;;;42.80;24.17;;;1.70;80.90;;;;;;5093487;28;20028;-12
2022/04/05 02:38:35;;;;;;;28.15;17.95;;;1.70;80.80;;;;;;5093050;28;20656;-12
2022/04/05 02:41:04;;;;;;;38.03;23.35;;;1.70;81.10;;;;;;5093544;28;20028;-13
2022/04/05 02:43:30;;;;;;;34.47;20.15;;;1.70;81.20;;;;;;5093490;28;20081;-12
2022/04/05 02:45:56;;;;;;;26.55;17.00;;;1.60;81.20;;;;;;5093096;28;20031;-12
2022/04/05 02:48:23;;;;;;;28.90;18.15;;;1.70;81.10;;;;;;5094483;28;20031;-13
2022/04/05 02:50:49;;;;;;;29.20;18.70;;;1.70;81.10;;;;;;5097334;28;20032;-12
2022/04/05 02:53:15;;;;;;;32.35;19.38;;;1.60;81.10;;;;;;5097093;28;20063;-13
2022/04/05 02:55:42;;;;;;;31.77;19.83;;;1.70;81.00;;;;;;5096226;28;20028;-12
2022/04/05 02:58:08;;;;;;;35.63;22.73;;;1.70;81.20;;;;;;5097474;28;20059;-13
2022/04/05 03:00:36;;;;;;;25.92;17.67;;;1.60;81.00;;;;;;5096911;28;20077;-12
2022/04/05 03:03:05;;;;;;;28.98;18.35;;;1.60;81.10;;;;;;5095894;28;20441;-13
2022/04/05 03:05:32;;;;;;;29.65;19.20;;;1.60;81.10;;;;;;5097132;28;20035;-12
2022/04/05 03:07:57;;;;;;;30.38;19.90;;;1.60;81.10;;;;;;5097395;28;20030;-12
2022/04/05 03:10:25;;;;;;;25.40;15.73;;;1.60;81.10;;;;;;5095526;28;20020;-12
2022/04/05 03:12:50;;;;;;;41.03;23.33;;;1.50;81.00;;;;;;5097921;28;20077;-12
2022/04/05 03:15:17;;;;;;;29.98;20.25;;;1.60;81.30;;;;;;5097144;28;20024;-13
2022/04/05 03:17:44;;;;;;;26.55;14.80;;;1.60;81.50;;;;;;5096972;28;20060;-13
2022/04/05 03:20:14;;;;;;;28.23;16.40;;;1.50;80.90;;;;;;5096988;28;20028;-12
2022/04/05 03:22:44;;;;;;;23.85;15.32;;;1.50;81.10;;;;;;5096645;28;20392;-13
2022/04/05 03:25:10;;;;;;;28.65;17.30;;;1.50;80.80;;;;;;5097091;28;20016;-12
2022/04/05 03:27:44;;;;;;;33.97;20.00;;;1.50;80.90;;;;;;5097028;28;20472;-12
2022/04/05 03:30:11;;;;;;;47.07;27.20;;;1.60;81.10;;;;;;5096812;28;20038;-12
2022/04/05 03:32:37;;;;;;;38.08;23.10;;;1.50;81.10;;;;;;5097011;28;20017;-12
2022/04/05 03:35:05;;;;;;;35.63;21.83;;;1.50;81.20;;;;;;5097638;28;20491;-13
2022/04/05 03:37:31;;;;;;;36.85;21.27;;;1.40;81.30;;;;;;5096386;28;20028;-11
2022/04/05 03:39:57;;;;;;;34.88;21.25;;;1.40;81.70;;;;;;5096362;28;20161;-13
2022/04/05 03:42:23;;;;;;;28.23;17.60;;;1.40;81.40;;;;;;5096544;28;20050;-12
2022/04/05 03:44:49;;;;;;;29.85;18.08;;;1.40;81.40;;;;;;5097329;28;20356;-13
2022/04/05 03:47:15;;;;;;;37.33;22.63;;;1.40;81.40;;;;;;5097143;28;20032;-12
2022/04/05 03:49:41;;;;;;;38.35;23.75;;;1.40;81.40;;;;;;5096264;28;20023;-12
2022/04/05 03:52:07;;;;;;;35.20;20.85;;;1.30;81.30;;;;;;5096276;28;20099;-12
2022/04/05 03:54:33;;;;;;;39.63;22.88;;;1.30;81.40;;;;;;5096333;28;20384;-11
2022/04/05 03:56:59;;;;;;;29.65;18.52;;;1.30;81.60;;;;;;5096372;28;20024;-13
2022/04/05 03:59:25;;;;;;;27.58;16.65;;;1.30;81.90;;;;;;5095980;28;20387;-12
2022/04/05 04:01:51;;;;;;;29.02;18.00;;;1.20;81.70;;;;;;5095118;28;20028;-13
2022/04/05 04:04:17;;;;;;;29.00;16.45;;;1.30;81.70;;;;;;5096110;28;20357;-12
2022/04/05 04:06:44;;;;;;;45.17;24.02;;;1.20;81.90;;;;;;5096265;28;20480;-12
2022/04/05 04:09:11;;;;;;;36.35;19.63;;;1.20;81.90;;;;;;5096450;28;20025;-12
2022/04/05 04:11:41;;;;;;;29.52;17.27;;;1.20;82.10;;;;;;5096296;28;20103;-12
2022/04/05 04:14:07;;;;;;;32.95;19.02;;;1.10;82.00;;;;;;5096143;28;20016;-12
2022/04/05 04:16:34;;;;;;;35.42;19.30;;;1.10;81.80;;;;;;5095564;28;20420;-12
2022/04/05 04:19:00;;;;;;;37.38;21.67;;;1.10;81.80;;;;;;5095690;28;20150;-11
2022/04/05 04:21:26;;;;;;;28.30;17.20;;;1.10;81.90;;;;;;5095700;28;20035;-12
2022/04/05 04:23:52;;;;;;;47.60;26.10;;;1.10;81.90;;;;;;5095560;28;20028;-12
2022/04/05 04:26:18;;;;;;;42.22;24.48;;;1.10;81.90;;;;;;5095569;28;20020;-12
2022/04/05 04:28:44;;;;;;;45.78;25.05;;;1.10;82.90;;;;;;5095453;28;20028;-12
2022/04/05 04:31:10;;;;;;;40.40;23.17;;;1.10;83.30;;;;;;5095405;28;20035;-12
2022/04/05 04:33:36;;;;;;;51.85;28.13;;;1.10;82.50;;;;;;5095719;28;20028;-12
2022/04/05 04:36:02;;;;;;;36.05;21.60;;;1.10;82.30;;;;;;5094298;28;20484;-12
2022/04/05 04:38:28;;;;;;;35.55;19.08;;;1.10;82.70;;;;;;5095191;28;20377;-12
2022/04/05 04:40:54;;;;;;;32.47;17.92;;;1.10;82.70;;;;;;5095583;28;20028;-12
2022/04/05 04:43:23;;;;;;;31.08;16.55;;;1.10;82.20;;;;;;5095229;28;20484;-12
2022/04/05 04:45:49;;;;;;;27.65;16.95;;;1.00;82.20;;;;;;5095096;28;20032;-12
2022/04/05 04:48:15;;;;;;;26.23;15.70;;;1.00;82.10;;;;;;5094970;28;20024;-12
2022/04/05 04:50:41;;;;;;;32.60;18.25;;;0.90;82.10;;;;;;5093866;28;20024;-13
2022/04/05 04:53:07;;;;;;;34.85;21.02;;;0.90;82.00;;;;;;5094822;28;20063;-11
2022/04/05 04:55:33;;;;;;;28.73;17.25;;;1.00;82.10;;;;;;5095346;28;20020;-12
2022/04/05 04:57:59;;;;;;;32.53;19.10;;;1.00;82.20;;;;;;5095071;28;20036;-12
2022/04/05 05:00:25;;;;;;;36.17;20.15;;;1.00;82.10;;;;;;5094590;28;20035;-12
2022/04/05 05:02:52;;;;;;;39.97;23.17;;;1.10;82.20;;;;;;5095091;28;20031;-12
2022/04/05 05:05:19;;;;;;;26.05;15.02;;;1.10;82.70;;;;;;5095145;28;20116;-12
2022/04/05 05:07:47;;;;;;;29.90;16.63;;;1.10;82.50;;;;;;5093506;28;20102;-12
2022/04/05 05:10:14;;;;;;;32.88;18.15;;;1.10;82.40;;;;;;5094478;28;20024;-12
2022/04/05 05:12:40;;;;;;;30.20;18.63;;;1.20;82.60;;;;;;5095061;28;20055;-12
2022/04/05 05:15:08;;;;;;;35.28;19.58;;;1.30;82.70;;;;;;5094610;28;20110;-12
2022/04/05 05:17:35;;;;;;;38.33;21.85;;;1.30;82.50;;;;;;5094811;28;20032;-12
2022/04/05 05:20:05;;;;;;;47.03;24.92;;;1.40;82.40;;;;;;5094832;28;20028;-12
2022/04/05 05:22:30;;;;;;;26.92;14.98;;;1.40;82.80;;;;;;5094529;28;20051;-12
2022/04/05 05:24:56;;;;;;;27.08;17.08;;;1.60;83.20;;;;;;5095064;28;20050;-12
2022/04/05 05:27:22;;;;;;;27.90;17.65;;;1.70;83.50;;;;;;5094361;28;20016;-11
2022/04/05 05:29:48;;;;;;;35.88;20.40;;;1.90;83.60;;;;;;5092925;28;20024;-12
2022/04/05 05:32:14;;;;;;;35.30;19.25;;;2.10;83.90;;;;;;5094378;28;20028;-13
2022/04/05 05:34:40;;;;;;;46.35;25.00;;;2.30;83.40;;;;;;5093018;28;20480;-11
2022/04/05 05:37:05;;;;;;;47.10;25.17;;;2.50;82.70;;;;;;5094131;28;20029;-12
2022/04/05 05:39:33;;;;;;;41.42;23.08;;;2.70;82.40;;;;;;5094450;28;20068;-12
2022/04/05 05:41:59;;;;;;;46.40;26.60;;;2.80;82.20;;;;;;5094377;28;20390;-12
2022/04/05 05:44:25;;;;;;;38.90;22.25;;;3.00;82.20;;;;;;5094263;28;20514;-12
2022/04/05 05:46:51;;;;;;;54.25;27.83;;;3.30;82.30;;;;;;5092748;28;20055;-12
2022/04/05 05:49:17;;;;;;;47.40;22.90;;;3.50;82.10;;;;;;5094403;28;20073;-13
2022/04/05 05:51:43;;;;;;;53.38;26.67;;;3.80;81.90;;;;;;5093965;28;20032;-13
2022/04/05 05:54:09;;;;;;;62.00;35.58;;;4.00;81.50;;;;;;5093707;28;20059;-12
2022/04/05 05:56:35;;;;;;;39.00;23.05;;;4.20;81.40;;;;;;5093581;28;20036;-13
2022/04/05 05:59:02;;;;;;;36.92;21.10;;;4.40;81.40;;;;;;5094085;28;20048;-11
2022/04/05 06:01:28;;;;;;;37.38;22.17;;;4.60;81.50;;;;;;5093955;28;20031;-13
2022/04/05 06:03:54;;;;;;;40.83;24.00;;;4.90;81.30;;;;;;5093881;28;20024;-12
2022/04/05 06:06:21;;;;;;;38.25;22.30;;;5.20;81.00;;;;;;5093984;28;20027;-12
2022/04/05 06:08:47;;;;;;;33.60;20.00;;;5.40;80.70;;;;;;5093980;28;20085;-12
2022/04/05 06:11:13;;;;;;;33.58;18.73;;;5.60;80.60;;;;;;5093989;28;20024;-12
2022/04/05 06:13:39;;;;;;;29.90;18.55;;;5.90;80.60;;;;;;5093883;28;20056;-13
2022/04/05 06:16:08;;;;;;;37.20;21.15;;;6.20;80.10;;;;;;5093651;28;20028;-13
2022/04/05 06:18:34;;;;;;;33.10;20.98;;;6.50;79.80;;;;;;5093487;28;20032;-13
2022/04/05 06:21:01;;;;;;;32.40;19.27;;;6.80;79.50;;;;;;5093454;28;20074;-12
2022/04/05 06:23:27;;;;;;;41.78;23.35;;;7.10;78.90;;;;;;5093320;28;20020;-13
2022/04/05 06:25:52;;;;;;;42.25;25.77;;;7.40;78.40;;;;;;5093401;28;20476;-13
2022/04/05 06:28:18;;;;;;;33.50;20.90;;;7.60;77.90;;;;;;5093347;28;20027;-12
2022/04/05 06:30:46;;;;;;;39.55;24.98;;;7.90;77.20;;;;;;5093559;28;20024;-12
2022/04/05 06:33:22;;;;;;;38.35;23.85;;;8.10;76.90;;;;;;5093592;28;20036;-12
2022/04/05 06:35:58;;;;;;;34.22;22.48;;;8.10;74.70;;;;;;5093215;28;20024;-13
2022/04/05 06:38:25;;;;;;;35.78;20.83;;;8.20;75.80;;;;;;5093331;28;20035;-13
2022/04/05 06:40:54;;;;;;;31.98;21.17;;;8.40;76.10;;;;;;5093521;28;20028;-12
2022/04/05 06:43:23;;;;;;;40.50;25.38;;;8.70;75.70;;;;;;5093498;28;20102;-13
2022/04/05 06:45:50;;;;;;;32.78;20.10;;;9.00;75.20;;;;;;5093162;28;20020;-12
2022/04/05 06:48:15;;;;;;;33.13;20.17;;;9.30;74.70;;;;;;5093040;28;20024;-13
2022/04/05 06:50:42;;;;;;;33.28;21.90;;;9.60;74.30;;;;;;5092967;28;20035;-13
2022/04/05 06:53:09;;;;;;;34.20;20.98;;;9.90;73.70;;;;;;5092908;28;20126;-12
2022/04/05 06:55:36;;;;;;;40.92;23.58;;;10.20;72.70;;;;;;5093165;28;20024;-13
2022/04/05 06:58:02;;;;;;;34.00;20.98;;;10.40;72.10;;;;;;5093286;28;20028;-13
2022/04/05 07:00:28;;;;;;;27.85;17.67;;;10.50;71.20;;;;;;5092848;28;20078;-12
2022/04/05 07:02:56;;;;;;;33.70;21.75;;;10.70;71.40;;;;;;5092264;28;20024;-12
2022/04/05 07:05:23;;;;;;;26.25;16.67;;;11.10;70.30;;;;;;5092975;28;20036;-13
2022/04/05 07:07:49;;;;;;;29.50;17.52;;;11.40;70.20;;;;;;5091736;28;20023;-12
2022/04/05 07:10:17;;;;;;;28.92;18.35;;;11.70;69.40;;;;;;5092773;28;20042;-13
2022/04/05 07:12:43;;;;;;;32.90;19.65;;;11.90;67.40;;;;;;5092897;28;20028;-12
2022/04/05 07:15:10;;;;;;;30.77;19.42;;;12.10;65.40;;;;;;5092805;28;20111;-11
2022/04/05 07:17:39;;;;;;;37.05;22.52;;;12.20;66.90;;;;;;5092797;28;20031;-11
2022/04/05 07:20:08;;;;;;;30.25;20.85;;;12.30;65.20;;;;;;5092840;28;20385;-11
2022/04/05 07:22:35;;;;;;;32.90;21.58;;;12.40;65.80;;;;;;5092597;28;20028;-12
2022/04/05 07:25:02;;;;;;;36.60;23.73;;;12.40;64.60;;;;;;5093039;28;20017;-12
2022/04/05 07:27:29;;;;;;;36.20;24.05;;;12.50;64.80;;;;;;5093158;28;20057;-13
2022/04/05 07:29:55;;;;;;;40.90;24.60;;;12.30;64.40;;;;;;5092956;28;20499;-12
2022/04/05 07:32:21;;;;;;;38.55;25.95;;;12.10;65.00;;;;;;5092612;28;20040;-11
2022/04/05 07:34:47;;;;;;;35.63;24.10;;;11.90;66.10;;;;;;5095025;28;20020;-11
2022/04/05 07:37:13;;;;;;;34.47;22.58;;;12.00;66.50;;;;;;5096371;28;20028;-11
2022/04/05 07:39:40;;;;;;;32.40;21.67;;;12.10;67.00;;;;;;5097118;28;20036;-12
2022/04/05 07:42:12;;;;;;;33.20;21.20;;;12.30;66.60;;;;;;5096743;28;20032;-12
2022/04/05 07:44:39;;;;;;;32.45;20.38;;;12.60;66.90;;;;;;5096667;28;20055;-12
2022/04/05 07:47:06;;;;;;;31.77;18.65;;;12.90;65.60;;;;;;5096230;28;20096;-12
2022/04/05 07:49:32;;;;;;;32.83;22.10;;;13.20;65.00;;;;;;5096529;28;20373;-12
2022/04/05 07:51:58;;;;;;;31.33;21.05;;;13.40;64.80;;;;;;5095958;28;20496;-13
2022/04/05 07:54:24;;;;;;;35.75;23.15;;;13.60;64.40;;;;;;5096141;28;20033;-12
2022/04/05 07:56:50;;;;;;;36.85;23.73;;;13.50;62.70;;;;;;5096826;28;20043;-13
2022/04/05 07:59:16;;;;;;;37.55;25.13;;;13.30;63.80;;;;;;5096405;28;20036;-12
2022/04/05 08:01:41;;;;;;;36.70;23.85;;;13.00;62.50;;;;;;5096243;28;20475;-12
2022/04/05 08:04:07;;;;;;;32.78;22.05;;;13.10;65.10;;;;;;5096565;28;20074;-12
2022/04/05 08:06:34;;;;;;;29.23;20.45;;;13.30;64.80;;;;;;5096047;28;20107;-13
2022/04/05 08:09:00;;;;;;;35.17;22.23;;;13.50;65.00;;;;;;5096205;28;20028;-12
2022/04/05 08:11:26;;;;;;;33.63;23.48;;;13.90;64.40;;;;;;5096510;28;20393;-12
2022/04/05 08:13:52;;;;;;;34.15;22.65;;;14.10;63.40;;;;;;5096140;28;20046;-12
2022/04/05 08:16:18;;;;;;;30.48;20.50;;;14.40;63.60;;;;;;5095488;28;20024;-12
2022/04/05 08:18:44;;;;;;;38.92;26.33;;;14.70;62.60;;;;;;5095931;28;20032;-11
2022/04/05 08:21:10;;;;;;;32.60;22.80;;;15.10;60.90;;;;;;5094442;28;20546;-11
2022/04/05 08:23:36;;;;;;;36.13;23.77;;;15.20;60.30;;;;;;5095758;28;20395;-12
2022/04/05 08:26:03;;;;;;;37.65;24.88;;;15.40;59.20;;;;;;5095569;28;20103;-12
2022/04/05 08:28:28;;;;;;;34.75;23.30;;;15.50;59.30;;;;;;5095215;28;20067;-12
2022/04/05 08:30:54;;;;;;;34.33;23.30;;;15.40;58.00;;;;;;5095382;28;20032;-12
2022/04/05 08:33:20;;;;;;;32.63;21.25;;;15.40;59.50;;;;;;5095389;28;20488;-12
2022/04/05 08:35:46;;;;;;;37.22;24.58;;;15.40;59.90;;;;;;5095976;28;20027;-12
2022/04/05 08:38:12;;;;;;;35.13;24.58;;;15.30;57.40;;;;;;5095590;28;20024;-13
2022/04/05 08:40:38;;;;;;;33.35;22.50;;;15.00;59.60;;;;;;5095099;28;20028;-12
2022/04/05 08:43:04;;;;;;;29.90;20.98;;;14.90;60.30;;;;;;5095361;28;20046;-12
2022/04/05 08:45:30;;;;;;;35.83;25.52;;;15.10;59.90;;;;;;5094108;28;20488;-12
2022/04/05 08:47:59;;;;;;;34.28;22.98;;;15.20;58.50;;;;;;5095104;28;20022;-12
2022/04/05 08:50:30;;;;;;;34.63;22.15;;;15.30;59.10;;;;;;5094862;28;20032;-12
2022/04/05 08:52:59;;;;;;;31.25;22.00;;;15.50;59.10;;;;;;5094871;28;20052;-13
2022/04/05 08:55:26;;;;;;;32.70;21.83;;;15.80;58.50;;;;;;5095214;28;20031;-13
2022/04/05 08:57:52;;;;;;;37.72;25.15;;;16.10;57.60;;;;;;5094715;28;20031;-12
2022/04/05 09:00:21;;;;;;;32.50;22.85;;;16.20;55.60;;;;;;5094524;28;20028;-12
2022/04/05 09:02:58;;;;;;;32.92;23.45;;;16.30;55.50;;;;;;5094788;28;20488;-12
2022/04/05 09:05:32;;;;;;;32.45;21.95;;;16.20;55.20;;;;;;5095050;28;20056;-12
2022/04/05 09:08:21;;;;;;;27.42;19.35;;;16.00;56.50;;;;;;5094939;28;20020;-12
2022/04/05 09:11:08;;;;;;;28.70;21.20;;;15.90;56.10;;;;;;5094670;28;20059;-13
2022/04/05 09:13:33;;;;;;;35.33;23.52;;;15.70;54.70;;;;;;5080663;28;20025;-13
2022/04/05 09:16:04;;;;;;;33.08;23.50;;;15.60;55.60;;;;;;5094754;28;20028;-12
2022/04/05 09:18:44;;;;;;;38.78;25.63;;;15.70;54.20;;;;;;5094581;28;20054;-14
2022/04/05 09:21:11;;;;;;;33.45;24.60;;;15.60;52.80;;;;;;5094528;28;20028;-13
2022/04/05 09:23:41;;;;;;;29.30;20.70;;;15.40;52.70;;;;;;5093226;28;20081;-13
2022/04/05 09:26:13;;;;;;;29.27;21.58;;;15.40;55.50;;;;;;5094454;28;20020;-13
2022/04/05 09:28:41;;;;;;;35.88;24.70;;;15.70;55.70;;;;;;5094251;28;20063;-13
2022/04/05 09:31:09;;;;;;;32.65;23.10;;;16.10;55.30;;;;;;5094282;28;20509;-12
2022/04/05 09:33:38;;;;;;;38.30;26.50;;;16.50;53.00;;;;;;5094242;28;20380;-12
2022/04/05 09:36:11;;;;;;;30.00;20.58;;;16.60;52.40;;;;;;5094589;28;20032;-12
2022/04/05 09:38:39;;;;;;;30.07;21.03;;;16.50;52.80;;;;;;5094559;28;20101;-12
2022/04/05 09:41:22;;;;;;;28.50;21.48;;;16.80;53.00;;;;;;5094431;28;20742;-12
2022/04/05 09:43:54;;;;;;;33.60;23.60;;;17.10;51.20;;;;;;5094821;28;20027;-12
2022/04/05 09:46:20;;;;;;;30.00;20.15;;;17.50;51.10;;;;;;5094124;28;20036;-12
2022/04/05 09:48:46;;;;;;;25.45;19.50;;;17.60;49.70;;;;;;5092657;28;20503;-12
2022/04/05 09:51:17;;;;;;;29.13;20.65;;;17.60;49.50;;;;;;5094727;28;20030;-13
2022/04/05 09:53:54;;;;;;;29.08;21.83;;;17.70;49.60;;;;;;5093955;28;20051;-13
2022/04/05 09:56:23;;;;;;;33.88;25.63;;;17.80;49.30;;;;;;5094263;28;20365;-12
2022/04/05 09:58:52;;;;;;;26.35;20.42;;;18.00;48.70;;;;;;5093592;28;20051;-12
2022/04/05 10:01:23;;;;;;;27.58;20.60;;;18.40;48.80;;;;;;5093683;28;20036;-12
2022/04/05 10:03:57;;;;;;;30.80;23.45;;;18.70;48.40;;;;;;5092452;28;20062;-13
2022/04/05 10:06:23;;;;;;;33.17;24.70;;;19.10;47.40;;;;;;5093801;28;20028;-12
2022/04/05 10:08:49;;;;;;;30.08;21.65;;;19.50;47.40;;;;;;5093646;28;20039;-12
2022/04/05 10:11:15;;;;;;;29.23;22.00;;;19.90;46.30;;;;;;5093974;28;20020;-12
2022/04/05 10:13:41;;;;;;;35.47;26.33;;;20.20;44.60;;;;;;5093916;28;20027;-13
2022/04/05 10:16:11;;;;;;;29.17;21.20;;;20.30;42.00;;;;;;5093425;28;20089;-12
2022/04/05 10:18:37;;;;;;;30.70;23.73;;;20.00;43.40;;;;;;5093101;28;20072;-12
2022/04/05 10:21:05;;;;;;;34.20;24.77;;;19.90;44.00;;;;;;5093718;28;20031;-12
2022/04/05 10:23:32;;;;;;;28.02;21.85;;;20.20;42.00;;;;;;5093964;28;20035;-13
2022/04/05 10:25:59;;;;;;;29.58;23.83;;;20.50;41.90;;;;;;5093720;28;20052;-12
2022/04/05 10:28:34;;;;;;;31.00;22.80;;;20.70;41.80;;;;;;5093456;28;20028;-12
2022/04/05 10:31:18;;;;;;;28.17;21.88;;;21.20;40.60;;;;;;5093243;28;20393;-12
2022/04/05 10:34:09;;;;;;;25.92;19.90;;;21.40;40.80;;;;;;5093300;28;20024;-11
2022/04/05 10:36:35;;;;;;;26.40;20.13;;;21.60;40.60;;;;;;5093314;28;20027;-12
2022/04/05 10:39:16;;;;;;;31.55;25.13;;;21.90;40.10;;;;;;5092956;28;20032;-13
2022/04/05 10:42:01;;;;;;;38.13;28.50;;;22.20;39.30;;;;;;5093158;28;20365;-12
2022/04/05 10:44:27;;;;;;;29.10;23.38;;;22.00;36.70;;;;;;5092980;28;20016;-12
2022/04/05 10:46:57;;;;;;;27.63;21.73;;;21.60;40.40;;;;;;5092935;28;20028;-13
2022/04/05 10:49:54;;;;;;;30.05;23.00;;;21.50;41.00;;;;;;5093371;28;20069;-12
2022/04/05 10:52:28;;;;;;;24.92;20.73;;;21.90;40.40;;;;;;5010675;28;20125;-12
2022/04/05 10:55:04;;;;;;;;;;;22.40;40.10;;;;;;5011620;28;20034;-11
2022/04/05 10:57:37;;;;;;;24.70;20.00;;;22.80;38.30;;;;;;5011292;28;20013;-12
2022/04/05 11:00:19;;;;;;;28.58;23.52;;;23.10;37.50;;;;;;5011192;28;20034;-12
2022/04/05 11:02:54;;;;;;;29.67;23.85;;;23.30;37.50;;;;;;5011197;28;20042;-11
2022/04/05 11:05:24;;;;;;;28.45;22.95;;;23.40;37.20;;;;;;5011383;28;20030;-12
2022/04/05 11:07:59;;;;;;;30.70;24.13;;;23.20;36.80;;;;;;5011050;28;20492;-12
2022/04/05 11:10:28;;;;;;;30.75;24.77;;;22.50;36.50;;;;;;5013892;28;20033;-13
2022/04/05 11:13:05;;;;;;;30.55;24.08;;;21.50;37.80;;;;;;5014983;28;20088;-12
2022/04/05 11:15:42;;;;;;;30.75;23.90;;;20.70;39.20;;;;;;5014836;28;20038;-11
2022/04/05 11:18:10;;;;;;;30.50;24.02;;;19.90;39.90;;;;;;5014827;28;20038;-12
2022/04/05 11:20:41;;;;;;;29.75;21.10;;;19.30;41.30;;;;;;5014645;28;20039;-13
2022/04/05 11:23:08;;;;;;;32.00;25.77;;;18.70;42.20;;;;;;5014962;28;20038;-12
2022/04/05 11:25:34;;;;;;;32.83;25.98;;;18.20;42.30;;;;;;5014893;28;20061;-12
2022/04/05 11:28:15;;;;;;;32.08;25.42;;;18.00;44.00;;;;;;5032481;28;20127;-12
2022/04/05 11:30:56;;;;;;;20.20;16.75;;;18.10;44.20;;;;;;5097192;28;20047;-12
2022/04/05 11:33:39;;;;;;;27.15;23.33;;;18.40;44.10;;;;;;5096619;28;20032;-12
2022/04/05 11:36:14;;;;;;;30.13;24.13;;;19.00;43.60;;;;;;5096654;28;20112;-13
2022/04/05 11:38:48;;;;;;;28.95;22.17;;;19.40;42.80;;;;;;5096832;28;20028;-12
2022/04/05 11:41:22;;;;;;;35.70;27.08;;;19.40;42.20;;;;;;5096548;28;20111;-12
2022/04/05 11:43:56;;;;;;;30.50;22.83;;;19.00;41.80;;;;;;5096752;28;20077;-13
2022/04/05 11:46:22;;;;;;;29.60;24.20;;;18.70;43.00;;;;;;5095040;28;20423;-12
2022/04/05 11:48:50;;;;;;;22.15;18.27;;;19.00;43.40;;;;;;5096687;28;20541;-12
2022/04/05 11:51:22;;;;;;;23.95;20.77;;;19.60;42.90;;;;;;5096339;28;20571;-11
2022/04/05 11:53:48;;;;;;;25.05;19.50;;;19.90;42.00;;;;;;5096231;28;20063;-12
2022/04/05 11:56:24;;;;;;;26.67;17.25;;;20.40;41.70;;;;;;5096003;28;20056;-13
2022/04/05 11:58:58;;;;;;;20.52;17.08;;;21.00;39.70;;;;;;5096542;28;20028;-12
2022/04/05 12:01:28;;;;;;;27.92;23.80;;;21.70;39.00;;;;;;5096034;28;20476;-12
2022/04/05 12:04:04;;;;;;;22.98;17.67;;;22.00;38.40;;;;;;5096110;28;20032;-13
2022/04/05 12:06:34;;;;;;;25.55;20.02;;;22.10;38.20;;;;;;5096169;28;20032;-12
2022/04/05 12:09:12;;;;;;;23.25;17.75;;;22.10;36.10;;;;;;5097089;28;20016;-12
2022/04/05 12:11:43;;;;;;;24.65;18.70;;;21.90;36.10;;;;;;5095050;28;20028;-12
2022/04/05 12:14:11;;;;;;;24.27;19.27;;;21.90;36.40;;;;;;5096701;28;20020;-13
2022/04/05 12:16:54;;;;;;;25.15;20.27;;;22.40;35.70;;;;;;5095773;28;20107;-13
2022/04/05 12:19:34;;;;;;;22.90;18.92;;;22.80;34.80;;;;;;5096318;28;20028;-13
2022/04/05 12:22:05;;;;;;;22.80;17.33;;;23.40;33.60;;;;;;5096066;28;20054;-13
2022/04/05 12:24:33;;;;;;;23.05;18.27;;;23.90;33.40;;;;;;5095482;28;20024;-12
2022/04/05 12:27:02;;;;;;;20.40;16.70;;;24.20;32.20;;;;;;5095575;28;20024;-12
2022/04/05 12:29:30;;;;;;;22.75;18.13;;;24.40;32.50;;;;;;5095985;28;20028;-12
2022/04/05 12:32:08;;;;;;;22.30;18.17;;;24.60;31.90;;;;;;5095470;28;20038;-13
2022/04/05 12:34:34;;;;;;;20.33;15.98;;;24.80;31.90;;;;;;5095612;28;20090;-12
2022/04/05 12:37:03;;;;;;;18.17;14.40;;;25.10;32.50;;;;;;5095591;28;20089;-12
2022/04/05 12:39:31;;;;;;;23.30;18.00;;;25.50;32.30;;;;;;5095378;28;20043;-14